Time;durP1;ratioP1;P1;durP2;ratioP2;P2;SDS_P1;SDS_P2;PMS_P1;PMS_P2;Temp;Humidity;BMP_temperature;BMP_pressure;BME280_temperature;BME280_humidity;BME280_pressure;Samples;Min_cycle;Max_cycle;Signal;HPM_P1;HPM_P2
2023/10/14 00:01:25;;;;;;;;;;;;;;;22.43;nan;99450.25;5022457;28;20415;-86
2023/10/14 00:03:51;;;;;;;;;;;;;;;22.45;nan;99445.41;5015839;28;19988;-86
2023/10/14 00:06:20;;;;;;;;;;;;;;;22.51;nan;99440.06;5019013;28;19976;-85
2023/10/14 00:08:51;;;;;;;;;;;;;;;22.53;nan;99444.13;5019467;28;19958;-85
2023/10/14 00:11:16;;;;;;;;;;;;;;;22.53;nan;99446.03;5015841;28;19964;-84
2023/10/14 00:13:52;;;;;;;;;;;;;;;22.53;nan;99448.72;5017962;28;19925;-85
2023/10/14 00:18:52;;;;;;;;;;;;;;;22.57;nan;99450.63;5015852;28;19925;-84
2023/10/14 00:21:18;;;;;;;;;;;;;;;22.58;nan;99451.44;5019118;28;19968;-84
2023/10/14 00:23:43;;;;;;;;;;;;;;;22.59;nan;99448.47;5028652;28;20274;-83
2023/10/14 00:26:14;;;;;;;;;;;;;;;22.59;nan;99437.69;5029075;28;20306;-83
2023/10/14 00:28:45;;;;;;;;;;;;;;;22.59;nan;99448.47;5020432;28;19971;-84
2023/10/14 00:31:10;;;;;;;;;;;;;;;22.54;nan;99434.97;5017649;28;19918;-84
2023/10/14 00:33:37;;;;;;;;;;;;;;;22.52;nan;99441.69;5016602;28;19929;-84
2023/10/14 00:36:03;;;;;;;;;;;;;;;22.48;nan;99425.22;5019319;28;19930;-83
2023/10/14 00:38:28;;;;;;;;;;;;;;;22.48;nan;99431.44;5018271;28;19949;-84
2023/10/14 00:40:53;;;;;;;;;;;;;;;22.44;nan;99434.88;5020177;28;19925;-83
2023/10/14 00:43:20;;;;;;;;;;;;;;;22.42;nan;99424.34;5023458;28;19953;-85
2023/10/14 00:45:45;;;;;;;;;;;;;;;22.40;nan;99417.59;5026870;28;19918;-84
2023/10/14 00:48:19;;;;;;;;;;;;;;;22.35;nan;99417.56;5031468;28;19944;-83
2023/10/14 00:50:44;;;;;;;;;;;;;;;22.29;nan;99418.63;5029091;28;19947;-84
2023/10/14 00:53:10;;;;;;;;;;;;;;;22.27;nan;99424.25;5031638;28;19989;-83
2023/10/14 00:55:57;;;;;;;;;;;;;;;22.28;nan;99415.09;5019553;28;19922;-84
2023/10/14 00:58:24;;;;;;;;;;;;;;;22.31;nan;99413.75;5018342;28;19964;-84
2023/10/14 01:00:59;;;;;;;;;;;;;;;22.30;nan;99407.56;5017724;28;19985;-84
2023/10/14 01:03:31;;;;;;;;;;;;;;;22.29;nan;99403.25;5023837;28;19968;-84
2023/10/14 01:05:57;;;;;;;;;;;;;;;22.29;nan;99399.75;5018490;28;19989;-83
2023/10/14 01:08:24;;;;;;;;;;;;;;;22.32;nan;99404.63;5017385;28;19933;-85
2023/10/14 01:10:50;;;;;;;;;;;;;;;22.34;nan;99391.72;5017580;28;19925;-84
2023/10/14 01:13:17;;;;;;;;;;;;;;;22.37;nan;99401.97;5019328;28;20032;-84
2023/10/14 01:15:44;;;;;;;;;;;;;;;22.36;nan;99392.28;5014053;28;19928;-84
2023/10/14 01:18:11;;;;;;;;;;;;;;;22.35;nan;99398.72;5031290;28;19989;-84
2023/10/14 01:20:39;;;;;;;;;;;;;;;22.36;nan;99395.78;5023340;28;20008;-85
2023/10/14 01:23:07;;;;;;;;;;;;;;;22.35;nan;99398.72;5014073;28;20419;-84
2023/10/14 01:25:34;;;;;;;;;;;;;;;22.32;nan;99388.47;5006022;28;20306;-84
2023/10/14 01:28:06;;;;;;;;;;;;;;;;;;5013710;28;19926;-84
2023/10/14 01:30:37;;;;;;;;;;;;;;;22.32;nan;99393.84;5027901;28;19932;-84
2023/10/14 01:33:13;;;;;;;;;;;;;;;;;;5018401;28;19944;-84
2023/10/14 01:35:44;;;;;;;;;;;;;;;22.30;nan;99396.00;5019094;28;19925;-83
2023/10/14 01:38:09;;;;;;;;;;;;;;;22.27;nan;99398.13;5017104;28;20384;-84
2023/10/14 01:43:05;;;;;;;;;;;;;;;22.29;nan;99397.06;5019261;28;19921;-83
2023/10/14 01:45:32;;;;;;;;;;;;;;;22.29;nan;99386.28;5017239;28;19921;-84
2023/10/14 01:50:37;;;;;;;;;;;;;;;22.34;nan;99380.94;5017106;28;19947;-83
2023/10/14 01:53:10;;;;;;;;;;;;;;;22.38;nan;99376.66;5017243;28;19933;-84
2023/10/14 01:55:35;;;;;;;;;;;;;;;22.45;nan;99378.06;5020484;28;20272;-85
2023/10/14 01:58:02;;;;;;;;;;;;;;;22.52;nan;99387.81;5017801;28;19928;-84
2023/10/14 02:00:33;;;;;;;;;;;;;;;22.51;nan;99380.81;5017299;28;19918;-84
2023/10/14 02:03:05;;;;;;;;;;;;;;;22.49;nan;99362.19;5017795;28;20311;-83
2023/10/14 02:05:34;;;;;;;;;;;;;;;22.42;nan;99373.19;5018548;28;19918;-84
2023/10/14 02:07:59;;;;;;;;;;;;;;;22.40;nan;99382.59;5016733;28;19933;-86
2023/10/14 02:10:24;;;;;;;;;;;;;;;22.42;nan;99373.19;5018555;28;19922;-82
2023/10/14 02:12:50;;;;;;;;;;;;;;;22.45;nan;99380.78;5017693;28;19925;-84
2023/10/14 02:15:15;;;;;;;;;;;;;;;22.44;nan;99386.41;5018483;28;19930;-86
2023/10/14 02:17:40;;;;;;;;;;;;;;;22.45;nan;99378.06;5021139;28;19991;-84
2023/10/14 02:20:19;;;;;;;;;;;;;;;22.46;nan;99378.88;5021744;28;19921;-84
2023/10/14 02:22:45;;;;;;;;;;;;;;;22.43;nan;99374.03;5020951;28;19922;-84
2023/10/14 02:25:15;;;;;;;;;;;;;;;22.42;nan;99375.88;5019860;28;19921;-85
2023/10/14 02:27:42;;;;;;;;;;;;;;;22.39;nan;99378.28;5019449;28;19928;-86
2023/10/14 02:30:08;;;;;;;;;;;;;;;22.35;nan;99388.75;5018652;28;19977;-84
2023/10/14 02:32:34;;;;;;;;;;;;;;;22.33;nan;99371.22;5019381;28;19968;-84
2023/10/14 02:34:59;;;;;;;;;;;;;;;22.32;nan;99388.47;5019262;28;19925;-85
2023/10/14 02:37:24;;;;;;;;;;;;;;;22.33;nan;99380.09;5024685;28;19933;-85
2023/10/14 02:39:50;;;;;;;;;;;;;;;22.33;nan;99384.69;5020102;28;19917;-84
2023/10/14 02:42:15;;;;;;;;;;;;;;;22.34;nan;99402.50;5019948;28;19933;-85
2023/10/14 02:44:51;;;;;;;;;;;;;;;22.29;nan;99400.56;5017995;28;19921;-86
2023/10/14 02:47:19;;;;;;;;;;;;;;;22.35;nan;99404.09;5016730;28;19928;-84
2023/10/14 02:49:53;;;;;;;;;;;;;;;22.33;nan;99406.22;5017996;28;19952;-84
2023/10/14 02:52:18;;;;;;;;;;;;;;;;;;5016870;28;19921;-84
2023/10/14 02:54:45;;;;;;;;;;;;;;;22.28;nan;99388.16;5018078;28;19979;-85
2023/10/14 02:59:48;;;;;;;;;;;;;;;22.19;nan;99379.72;5020610;28;19917;-87
2023/10/14 03:02:15;;;;;;;;;;;;;;;22.21;nan;99376.78;5017822;28;19996;-84
2023/10/14 03:04:55;;;;;;;;;;;;;;;;;;5020014;28;20311;-85
2023/10/14 03:07:28;;;;;;;;;;;;;;;22.21;nan;99376.78;5016553;28;19936;-84
2023/10/14 03:10:27;;;;;;;;;;;;;;;22.20;nan;99391.28;5016821;28;19953;-85
2023/10/14 03:12:53;;;;;;;;;;;;;;;22.18;nan;99369.19;5013931;28;20470;-85
2023/10/14 03:15:25;;;;;;;;;;;;;;;;;;5016352;28;19933;-86
2023/10/14 03:17:55;;;;;;;;;;;;;;;;;;5013932;28;20385;-84
2023/10/14 03:22:53;;;;;;;;;;;;;;;22.08;nan;99377.19;5012239;28;19929;-85
2023/10/14 03:25:23;;;;;;;;;;;;;;;22.07;nan;99373.66;5016048;28;19932;-85
2023/10/14 03:27:48;;;;;;;;;;;;;;;22.07;nan;99381.75;5016803;28;19929;-85
2023/10/14 03:30:15;;;;;;;;;;;;;;;22.04;nan;99376.88;5014825;28;20307;-85
2023/10/14 03:32:42;;;;;;;;;;;;;;;22.03;nan;99375.25;5020655;28;19917;-84
2023/10/14 03:35:11;;;;;;;;;;;;;;;22.01;nan;99351.28;5021323;28;19952;-85
2023/10/14 03:37:40;;;;;;;;;;;;;;;22.02;nan;99371.78;5020164;28;19917;-85
2023/10/14 03:40:37;;;;;;;;;;;;;;;21.98;nan;99372.53;5019079;28;19944;-86
2023/10/14 03:42:54;;;;;;;;;;;;;;;22.00;nan;99381.13;5020485;28;19921;-83
2023/10/14 03:45:28;;;;;;;;;;;;;;;22.02;nan;99368.25;5021159;28;19923;-83
2023/10/14 03:47:59;;;;;;;;;;;;;;;22.01;nan;99372.81;5019761;28;19921;-85
2023/10/14 03:50:24;;;;;;;;;;;;;;;21.96;nan;99375.47;5021277;28;19925;-83
2023/10/14 03:52:51;;;;;;;;;;;;;;;21.97;nan;99376.28;5019931;28;19948;-85
2023/10/14 03:55:19;;;;;;;;;;;;;;;21.93;nan;99375.97;5020018;28;19936;-85
2023/10/14 03:57:45;;;;;;;;;;;;;;;21.90;nan;99403.38;5020577;28;19960;-84
2023/10/14 04:00:12;;;;;;;;;;;;;;;21.87;nan;99386.94;5018570;28;19921;-86
2023/10/14 04:02:40;;;;;;;;;;;;;;;21.80;nan;99398.72;5019294;28;19997;-85
2023/10/14 04:05:12;;;;;;;;;;;;;;;21.70;nan;99377.09;5020361;28;19922;-84
2023/10/14 04:07:40;;;;;;;;;;;;;;;;;;5019939;28;20143;-84
2023/10/14 04:10:09;;;;;;;;;;;;;;;21.53;nan;99404.06;5017661;28;19917;-83
2023/10/14 04:12:37;;;;;;;;;;;;;;;21.42;nan;99408.50;5020128;28;20009;-85
2023/10/14 04:17:38;;;;;;;;;;;;;;;21.31;nan;99406.75;5014191;28;19926;-84
2023/10/14 04:22:44;;;;;;;;;;;;;;;21.25;nan;99410.41;5024270;28;19921;-84
2023/10/14 04:27:45;;;;;;;;;;;;;;;21.07;nan;99416.91;5021029;28;19921;-84
2023/10/14 04:30:11;;;;;;;;;;;;;;;21.01;nan;99415.22;5020498;28;19917;-85
2023/10/14 04:35:14;;;;;;;;;;;;;;;20.83;nan;99429.72;5019384;28;19918;-84
2023/10/14 04:37:51;;;;;;;;;;;;;;;20.79;nan;99431.28;5024964;28;19967;-84
2023/10/14 04:40:34;;;;;;;;;;;;;;;20.79;nan;99426.72;5018383;28;19940;-83
2023/10/14 04:45:52;;;;;;;;;;;;;;;20.74;nan;99437.41;5015324;28;20056;-84
2023/10/14 04:48:27;;;;;;;;;;;;;;;20.70;nan;99433.56;5019880;28;19948;-85
2023/10/14 04:51:00;;;;;;;;;;;;;;;20.66;nan;99436.97;5019881;28;20013;-83
2023/10/14 04:53:31;;;;;;;;;;;;;;;20.63;nan;99458.97;5018736;28;19945;-86
2023/10/14 04:56:01;;;;;;;;;;;;;;;20.63;nan;99459.78;5019697;28;19944;-84
2023/10/14 04:58:26;;;;;;;;;;;;;;;20.64;nan;99455.22;5018878;28;19925;-85
2023/10/14 05:00:52;;;;;;;;;;;;;;;20.64;nan;99455.22;5018442;28;19917;-86
2023/10/14 05:03:23;;;;;;;;;;;;;;;;;;5020715;28;19930;-83
2023/10/14 05:05:51;;;;;;;;;;;;;;;20.49;nan;99453.88;5018832;28;19932;-85
2023/10/14 05:08:21;;;;;;;;;;;;;;;20.45;nan;99457.28;5018352;28;19918;-84
2023/10/14 05:10:50;;;;;;;;;;;;;;;20.40;nan;99459.88;5020109;28;19944;-83
2023/10/14 05:13:15;;;;;;;;;;;;;;;20.35;nan;99460.59;5018056;28;20016;-85
2023/10/14 05:15:41;;;;;;;;;;;;;;;20.30;nan;99445.22;5018133;28;20332;-85
2023/10/14 05:18:14;;;;;;;;;;;;;;;20.26;nan;99459.38;5018475;28;20000;-86
2023/10/14 05:21:42;;;;;;;;;;;;;;;20.22;nan;99452.88;5027062;28;19952;-85
2023/10/14 05:23:34;;;;;;;;;;;;;;;20.19;nan;99467.59;5019053;28;19932;-86
2023/10/14 05:26:00;;;;;;;;;;;;;;;20.18;nan;99452.53;5030335;28;19921;-85
2023/10/14 05:28:29;;;;;;;;;;;;;;;20.17;nan;99475.06;5026473;28;20333;-84
2023/10/14 05:30:55;;;;;;;;;;;;;;;20.16;nan;99470.75;5019666;28;19917;-84
2023/10/14 05:33:21;;;;;;;;;;;;;;;20.18;nan;99483.94;5020318;28;20386;-86
2023/10/14 05:35:46;;;;;;;;;;;;;;;;;;5027342;28;19925;-85
2023/10/14 05:38:11;;;;;;;;;;;;;;;20.15;nan;99491.41;5017472;28;19926;-84
2023/10/14 05:40:38;;;;;;;;;;;;;;;20.12;nan;99501.81;5017463;28;19928;-86
2023/10/14 05:43:03;;;;;;;;;;;;;;;20.06;nan;99497.41;5016632;28;19921;-85
2023/10/14 05:45:34;;;;;;;;;;;;;;;20.08;nan;99500.66;5017711;28;19925;-86
2023/10/14 05:47:59;;;;;;;;;;;;;;;20.08;nan;99508.72;5019983;28;19932;-85
2023/10/14 05:50:24;;;;;;;;;;;;;;;20.03;nan;99525.53;5025889;28;20439;-84
2023/10/14 05:52:49;;;;;;;;;;;;;;;20.04;nan;99520.97;5017115;28;19925;-84
2023/10/14 05:55:19;;;;;;;;;;;;;;;20.01;nan;99537.56;5017088;28;19921;-86
2023/10/14 05:57:45;;;;;;;;;;;;;;;19.99;nan;99545.03;5019818;28;19926;-83
2023/10/14 06:00:20;;;;;;;;;;;;;;;19.94;nan;99537.69;5017785;28;20275;-84
2023/10/14 06:02:47;;;;;;;;;;;;;;;19.90;nan;99553.47;5018854;28;19975;-85
2023/10/14 06:05:12;;;;;;;;;;;;;;;19.89;nan;99572.47;5019120;28;19924;-84
2023/10/14 06:07:39;;;;;;;;;;;;;;;19.88;nan;99571.66;5017737;28;19921;-84
2023/10/14 06:10:04;;;;;;;;;;;;;;;19.75;nan;99566.53;5016792;28;19971;-85
2023/10/14 06:12:29;;;;;;;;;;;;;;;19.70;nan;99574.47;5021216;28;19961;-84
2023/10/14 06:14:54;;;;;;;;;;;;;;;;;;5027667;28;19917;-84
2023/10/14 06:17:20;;;;;;;;;;;;;;;19.77;nan;99585.91;5020893;28;19922;-83
2023/10/14 06:19:45;;;;;;;;;;;;;;;19.79;nan;99575.75;5019220;28;19917;-85
2023/10/14 06:22:13;;;;;;;;;;;;;;;19.78;nan;99576.78;5029121;28;19961;-85
2023/10/14 06:24:38;;;;;;;;;;;;;;;19.76;nan;99583.44;5015549;28;19918;-83
2023/10/14 06:27:20;;;;;;;;;;;;;;;19.66;nan;99598.25;5015994;28;19921;-85
2023/10/14 06:29:47;;;;;;;;;;;;;;;19.60;nan;99614.44;5024996;28;20044;-84
2023/10/14 06:32:12;;;;;;;;;;;;;;;19.55;nan;99612.47;5000553;28;20203;-83
2023/10/14 06:34:39;;;;;;;;;;;;;;;19.55;nan;99615.16;5016870;28;19921;-83
2023/10/14 06:37:07;;;;;;;;;;;;;;;19.57;nan;99620.25;5016333;28;19921;-84
2023/10/14 06:39:38;;;;;;;;;;;;;;;19.58;nan;99628.09;5017377;28;19922;-85
2023/10/14 06:42:04;;;;;;;;;;;;;;;19.64;nan;99619.13;5024186;28;20004;-86
2023/10/14 06:44:32;;;;;;;;;;;;;;;19.68;nan;99636.38;5028671;28;19929;-83
2023/10/14 06:46:57;;;;;;;;;;;;;;;19.72;nan;99626.84;5032304;28;19977;-86
2023/10/14 06:49:36;;;;;;;;;;;;;;;19.72;nan;99642.94;5038438;28;19924;-84
2023/10/14 06:52:04;;;;;;;;;;;;;;;19.74;nan;99658.78;5023292;28;19924;-85
2023/10/14 06:54:30;;;;;;;;;;;;;;;19.75;nan;99667.66;5017271;28;19925;-83
2023/10/14 06:56:55;;;;;;;;;;;;;;;;;;5018640;28;19922;-84
2023/10/14 06:59:21;;;;;;;;;;;;;;;19.68;nan;99689.22;5019813;28;20387;-85
2023/10/14 07:01:46;;;;;;;;;;;;;;;19.61;nan;99678.56;5026676;28;19921;-83
2023/10/14 07:04:16;;;;;;;;;;;;;;;19.52;nan;99680.78;5017604;28;19967;-84
2023/10/14 07:06:47;;;;;;;;;;;;;;;;;;5029049;28;20012;-85
2023/10/14 07:09:17;;;;;;;;;;;;;;;18.99;nan;99723.63;5021364;28;19928;-85
2023/10/14 07:11:46;;;;;;;;;;;;;;;18.37;nan;99694.28;5020154;28;20557;-84
2023/10/14 07:14:11;;;;;;;;;;;;;;;18.04;nan;99695.44;5020120;28;19948;-86
2023/10/14 07:16:36;;;;;;;;;;;;;;;;;;5020720;28;19922;-83
2023/10/14 07:19:01;;;;;;;;;;;;;;;17.65;nan;99712.66;5019640;28;19917;-86
2023/10/14 07:21:29;;;;;;;;;;;;;;;17.52;nan;99709.03;5018733;28;20053;-84
2023/10/14 07:23:54;;;;;;;;;;;;;;;17.36;nan;99736.28;5017726;28;20022;-86
2023/10/14 07:26:19;;;;;;;;;;;;;;;;;;5012698;28;19926;-84
2023/10/14 07:28:51;;;;;;;;;;;;;;;;;;5017931;28;19925;-85
2023/10/14 07:31:16;;;;;;;;;;;;;;;17.16;nan;99741.75;5012666;28;19929;-85
2023/10/14 07:33:41;;;;;;;;;;;;;;;;;;5014704;28;19926;-85
2023/10/14 07:36:06;;;;;;;;;;;;;;;;;;5014101;28;19936;-84
2023/10/14 07:38:31;;;;;;;;;;;;;;;;;;5014775;28;20391;-84
2023/10/14 07:40:58;;;;;;;;;;;;;;;;;;5011931;28;19921;-84
2023/10/14 07:43:26;;;;;;;;;;;;;;;;;;5012697;28;20435;-85
2023/10/14 07:45:52;;;;;;;;;;;;;;;;;;5014774;28;19917;-85
2023/10/14 07:48:17;;;;;;;;;;;;;;;;;;5010028;28;19983;-85
2023/10/14 07:50:42;;;;;;;;;;;;;;;;;;5013539;28;20017;-85
2023/10/14 07:53:07;;;;;;;;;;;;;;;;;;5012935;28;19976;-85
2023/10/14 07:55:35;;;;;;;;;;;;;;;;;;5012230;28;19952;-86
2023/10/14 07:58:00;;;;;;;;;;;;;;;16.93;nan;99801.84;5013683;28;19921;-86
2023/10/14 08:00:37;;;;;;;;;;;;;;;16.83;nan;99800.63;5011708;28;20226;-86
2023/10/14 08:03:06;;;;;;;;;;;;;;;;;;5012791;28;19926;-85
2023/10/14 08:05:31;;;;;;;;;;;;;;;;;;5008792;28;19923;-85
2023/10/14 08:07:56;;;;;;;;;;;;;;;17.28;nan;99825.56;5011968;28;19922;-87
2023/10/14 08:10:22;;;;;;;;;;;;;;;;;;5021356;28;19926;-85
2023/10/14 08:12:47;;;;;;;;;;;;;;;;;;5025897;28;19931;-86
2023/10/14 08:15:12;;;;;;;;;;;;;;;;;;5026071;28;19951;-85
2023/10/14 08:17:37;;;;;;;;;;;;;;;;;;5028564;28;19922;-85
2023/10/14 08:20:12;;;;;;;;;;;;;;;;;;5025973;28;19928;-86
2023/10/14 08:22:37;;;;;;;;;;;;;;;;;;5025498;28;19937;-86
2023/10/14 08:25:03;;;;;;;;;;;;;;;;;;5026664;28;19921;-85
2023/10/14 08:27:29;;;;;;;;;;;;;;;17.04;nan;99861.81;5026678;28;19937;-86
2023/10/14 08:29:56;;;;;;;;;;;;;;;17.14;nan;99846.16;5024547;28;19921;-86
2023/10/14 08:32:23;;;;;;;;;;;;;;;17.19;nan;99865.03;5028965;28;19925;-85
2023/10/14 08:34:48;;;;;;;;;;;;;;;;;;5026483;28;19980;-87
2023/10/14 08:37:14;;;;;;;;;;;;;;;17.50;nan;99855.44;5027448;28;20422;-85
2023/10/14 08:39:40;;;;;;;;;;;;;;;17.44;nan;99856.28;5030688;28;19929;-86
2023/10/14 08:42:05;;;;;;;;;;;;;;;;;;5028813;28;19929;-86
2023/10/14 08:44:31;;;;;;;;;;;;;;;17.12;nan;99858.09;5028402;28;19933;-86
2023/10/14 08:46:56;;;;;;;;;;;;;;;;;;5025276;28;19921;-85
2023/10/14 08:49:27;;;;;;;;;;;;;;;17.07;nan;99872.06;5029266;28;20016;-86
2023/10/14 08:51:52;;;;;;;;;;;;;;;;;;5039280;28;19921;-85
2023/10/14 08:54:19;;;;;;;;;;;;;;;;;;5023955;28;19922;-85
2023/10/14 08:56:44;;;;;;;;;;;;;;;;;;5027013;28;19922;-85
2023/10/14 08:59:12;;;;;;;;;;;;;;;;;;5027876;28;20471;-85
2023/10/14 09:01:37;;;;;;;;;;;;;;;17.31;nan;99885.75;5022420;28;20000;-85
2023/10/14 09:04:03;;;;;;;;;;;;;;;17.49;nan;99896.56;5026518;28;20017;-83
2023/10/14 09:06:29;;;;;;;;;;;;;;;17.68;nan;99904.72;5025666;28;19921;-85
2023/10/14 09:08:54;;;;;;;;;;;;;;;17.82;nan;99900.97;5027907;28;19922;-85
2023/10/14 09:11:26;;;;;;;;;;;;;;;17.69;nan;99887.66;5025060;28;20426;-85
2023/10/14 09:14:00;;;;;;;;;;;;;;;17.61;nan;99900.22;5018683;28;20283;-85
2023/10/14 09:16:26;;;;;;;;;;;;;;;;;;5006588;28;19929;-85
2023/10/14 09:18:51;;;;;;;;;;;;;;;;;;5013496;28;19917;-86
2023/10/14 09:21:17;;;;;;;;;;;;;;;;;;5011472;28;19975;-84
2023/10/14 09:23:44;;;;;;;;;;;;;;;;;;5012286;28;20318;-83
2023/10/14 09:26:09;;;;;;;;;;;;;;;;;;5011141;28;19937;-85
2023/10/14 09:28:34;;;;;;;;;;;;;;;;;;5013824;28;19921;-84
2023/10/14 09:30:59;;;;;;;;;;;;;;;;;;5008499;28;19953;-84
2023/10/14 09:33:27;;;;;;;;;;;;;;;;;;5009281;28;19922;-85
2023/10/14 09:35:53;;;;;;;;;;;;;;;;;;5011363;28;20043;-84
2023/10/14 09:38:19;;;;;;;;;;;;;;;;;;5008675;28;19929;-84
2023/10/14 09:40:44;;;;;;;;;;;;;;;;;;5011916;28;20036;-86
2023/10/14 09:43:09;;;;;;;;;;;;;;;;;;5012679;28;20008;-85
2023/10/14 09:45:36;;;;;;;;;;;;;;;;;;5013119;28;21210;-84
2023/10/14 09:48:02;;;;;;;;;;;;;;;;;;5013991;28;20044;-85
2023/10/14 09:50:29;;;;;;;;;;;;;;;18.03;nan;99931.91;5013300;28;19921;-84
2023/10/14 09:52:54;;;;;;;;;;;;;;;18.46;nan;99949.94;5016215;28;19928;-86
2023/10/14 09:55:20;;;;;;;;;;;;;;;18.60;nan;99950.66;5014737;28;20005;-85
2023/10/14 09:57:47;;;;;;;;;;;;;;;18.80;nan;99967.41;5018151;28;19944;-85
2023/10/14 10:00:12;;;;;;;;;;;;;;;19.04;nan;99967.59;5015725;28;19918;-85
2023/10/14 10:02:43;;;;;;;;;;;;;;;18.74;nan;99968.25;5016900;28;20278;-85
2023/10/14 10:05:12;;;;;;;;;;;;;;;18.57;nan;99959.97;5016208;28;19929;-85
2023/10/14 10:07:41;;;;;;;;;;;;;;;;;;5014825;28;19964;-85
2023/10/14 10:10:17;;;;;;;;;;;;;;;19.26;nan;99955.44;4999306;28;19928;-85
2023/10/14 10:12:42;;;;;;;;;;;;;;;;;;5011888;28;19929;-86
2023/10/14 10:15:08;;;;;;;;;;;;;;;20.89;nan;99993.09;5013169;28;19921;-85
2023/10/14 10:17:34;;;;;;;;;;;;;;;21.24;nan;100008.41;5016550;28;20433;-85
2023/10/14 10:20:10;;;;;;;;;;;;;;;22.63;nan;100009.28;5013758;28;19925;-85
2023/10/14 10:22:43;;;;;;;;;;;;;;;22.19;nan;100009.00;5008404;28;19933;-86
2023/10/14 10:25:14;;;;;;;;;;;;;;;21.49;nan;99996.59;5016782;28;19949;-87
2023/10/14 10:27:40;;;;;;;;;;;;;;;20.75;nan;99999.72;5012634;28;19933;-85
2023/10/14 10:30:07;;;;;;;;;;;;;;;20.12;nan;100007.25;5014469;28;19921;-87
2023/10/14 10:32:33;;;;;;;;;;;;;;;;;;5008083;28;19928;-86
2023/10/14 10:35:05;;;;;;;;;;;;;;;20.76;nan;99995.97;5009154;28;19932;-86
2023/10/14 10:37:30;;;;;;;;;;;;;;;;;;5014763;28;19928;-87
2023/10/14 10:39:55;;;;;;;;;;;;;;;24.05;nan;100035.88;5011647;28;19921;-86
2023/10/14 10:42:20;;;;;;;;;;;;;;;24.99;nan;100035.44;5018876;28;19940;-86
2023/10/14 10:44:46;;;;;;;;;;;;;;;25.46;nan;100039.31;5011864;28;19921;-86
2023/10/14 10:47:12;;;;;;;;;;;;;;;24.32;nan;100033.22;5013187;28;20315;-87
2023/10/14 10:49:49;;;;;;;;;;;;;;;22.53;nan;100020.72;5012026;28;19983;-86
2023/10/14 10:52:16;;;;;;;;;;;;;;;21.32;nan;100026.06;5013691;28;19924;-84
2023/10/14 10:54:43;;;;;;;;;;;;;;;22.22;nan;100035.50;5012844;28;19921;-87
2023/10/14 10:57:08;;;;;;;;;;;;;;;23.26;nan;100039.69;5015684;28;20295;-85
2023/10/14 10:59:37;;;;;;;;;;;;;;;23.82;nan;100048.56;5015082;28;19917;-86
2023/10/14 11:02:02;;;;;;;;;;;;;;;24.01;nan;100048.28;5015141;28;20486;-87
2023/10/14 11:04:30;;;;;;;;;;;;;;;22.70;nan;100042.28;5014928;28;19987;-87
2023/10/14 11:06:55;;;;;;;;;;;;;;;21.80;nan;100033.84;5024731;28;19932;-86
2023/10/14 11:09:20;;;;;;;;;;;;;;;20.82;nan;100021.13;5024272;28;19922;-86
2023/10/14 11:11:46;;;;;;;;;;;;;;;19.85;nan;100022.03;5027976;28;19917;-85
2023/10/14 11:14:17;;;;;;;;;;;;;;;19.33;nan;100013.50;5023491;28;19971;-86
2023/10/14 11:16:52;;;;;;;;;;;;;;;18.84;nan;100011.47;5012266;28;19932;-84
2023/10/14 11:19:20;;;;;;;;;;;;;;;18.75;nan;100002.03;5010671;28;19922;-86
2023/10/14 11:21:45;;;;;;;;;;;;;;;18.64;nan;99989.38;5016697;28;19925;-86
2023/10/14 11:24:16;;;;;;;;;;;;;;;18.40;nan;99991.81;5020377;28;19921;-85
2023/10/14 11:26:45;;;;;;;;;;;;;;;18.54;nan;99992.50;5017900;28;19922;-85
2023/10/14 11:29:11;;;;;;;;;;;;;;;18.58;nan;99990.22;5014211;28;19918;-86
2023/10/14 11:31:36;;;;;;;;;;;;;;;18.41;nan;99977.38;5013491;28;19922;-85
2023/10/14 11:34:02;;;;;;;;;;;;;;;18.31;nan;99962.84;5015424;28;20335;-85
2023/10/14 11:36:28;;;;;;;;;;;;;;;;;;5013296;28;19981;-86
2023/10/14 11:38:56;;;;;;;;;;;;;;;;;;5021308;28;19960;-85
2023/10/14 11:41:21;;;;;;;;;;;;;;;18.00;nan;99962.59;5020599;28;20049;-86
2023/10/14 11:43:47;;;;;;;;;;;;;;;18.28;nan;99963.25;5022625;28;19929;-85
2023/10/14 11:46:17;;;;;;;;;;;;;;;18.31;nan;99962.84;5020869;28;19929;-86
2023/10/14 11:48:46;;;;;;;;;;;;;;;18.33;nan;99969.59;5022445;28;19945;-86
2023/10/14 11:51:15;;;;;;;;;;;;;;;18.10;nan;99966.66;5019511;28;19917;-84
2023/10/14 11:53:44;;;;;;;;;;;;;;;17.98;nan;99969.19;5030345;28;20299;-87
2023/10/14 11:56:13;;;;;;;;;;;;;;;;;;5022864;28;19921;-85
2023/10/14 11:58:40;;;;;;;;;;;;;;;17.83;nan;99961.47;5023834;28;19975;-85
2023/10/14 12:01:06;;;;;;;;;;;;;;;17.67;nan;99967.25;5026245;28;19964;-85
2023/10/14 12:03:31;;;;;;;;;;;;;;;17.58;nan;99961.31;5023569;28;19925;-86
2023/10/14 12:05:57;;;;;;;;;;;;;;;17.53;nan;99977.16;5021285;28;19921;-85
2023/10/14 12:08:26;;;;;;;;;;;;;;;17.58;nan;99980.03;5020333;28;19965;-83
2023/10/14 12:10:52;;;;;;;;;;;;;;;17.65;nan;99980.81;5021032;28;19918;-86
2023/10/14 12:13:18;;;;;;;;;;;;;;;17.81;nan;99984.91;5023927;28;19922;-86
2023/10/14 12:15:43;;;;;;;;;;;;;;;17.66;nan;99982.44;5022121;28;19922;-85
2023/10/14 12:18:13;;;;;;;;;;;;;;;;;;5023590;28;19925;-84
2023/10/14 12:20:39;;;;;;;;;;;;;;;17.20;nan;99978.88;5023697;28;19928;-86
2023/10/14 12:23:04;;;;;;;;;;;;;;;17.07;nan;99973.59;5023043;28;19988;-84
2023/10/14 12:25:30;;;;;;;;;;;;;;;17.00;nan;99971.97;5026623;28;19917;-85
2023/10/14 12:27:57;;;;;;;;;;;;;;;16.93;nan;99977.28;5025915;28;20338;-84
2023/10/14 12:30:35;;;;;;;;;;;;;;;16.78;nan;99977.50;5023823;28;20406;-83
2023/10/14 12:33:04;;;;;;;;;;;;;;;16.72;nan;99987.13;5019739;28;20401;-85
2023/10/14 12:35:32;;;;;;;;;;;;;;;16.63;nan;99982.19;5021493;28;19924;-84
2023/10/14 12:37:58;;;;;;;;;;;;;;;16.59;nan;99991.63;5024712;28;19988;-84
2023/10/14 12:40:24;;;;;;;;;;;;;;;;;;5021553;28;19921;-83
2023/10/14 12:42:50;;;;;;;;;;;;;;;16.72;nan;99987.13;5022923;28;19928;-84
2023/10/14 12:45:23;;;;;;;;;;;;;;;16.73;nan;99998.63;5021540;28;20394;-82
2023/10/14 12:47:48;;;;;;;;;;;;;;;16.78;nan;99996.19;5022147;28;19924;-82
2023/10/14 12:50:14;;;;;;;;;;;;;;;;;;5023190;28;20016;-84
2023/10/14 12:52:40;;;;;;;;;;;;;;;16.78;nan;99998.84;5023056;28;19922;-83
2023/10/14 12:55:14;;;;;;;;;;;;;;;;;;5021285;28;20364;-84
2023/10/14 12:57:39;;;;;;;;;;;;;;;;;;5027288;28;19930;-84
2023/10/14 13:00:04;;;;;;;;;;;;;;;17.18;nan;100022.88;5022564;28;19917;-85
2023/10/14 13:02:34;;;;;;;;;;;;;;;17.15;nan;100013.44;5025196;28;19983;-84
2023/10/14 13:05:00;;;;;;;;;;;;;;;17.17;nan;100027.41;5027406;28;19918;-85
2023/10/14 13:07:25;;;;;;;;;;;;;;;;;;5011368;28;19929;-84
2023/10/14 13:09:50;;;;;;;;;;;;;;;17.31;nan;100017.53;5021472;28;19918;-84
2023/10/14 13:12:15;;;;;;;;;;;;;;;17.37;nan;100026.53;5019400;28;19929;-84
2023/10/14 13:14:41;;;;;;;;;;;;;;;17.47;nan;100026.97;5014052;28;19926;-86
2023/10/14 13:17:07;;;;;;;;;;;;;;;;;;5011567;28;19989;-87
2023/10/14 13:19:35;;;;;;;;;;;;;;;;;;5014917;28;19918;-86
2023/10/14 13:22:09;;;;;;;;;;;;;;;17.52;nan;100027.16;5013319;28;19960;-86
2023/10/14 13:24:35;;;;;;;;;;;;;;;17.57;nan;100027.34;5014813;28;19922;-85
2023/10/14 13:27:00;;;;;;;;;;;;;;;17.45;nan;100034.34;5022737;28;19921;-84
2023/10/14 13:29:26;;;;;;;;;;;;;;;17.29;nan;100040.13;5024220;28;19940;-85
2023/10/14 13:31:51;;;;;;;;;;;;;;;;;;5025256;28;19929;-85
2023/10/14 13:34:18;;;;;;;;;;;;;;;17.04;nan;100046.13;5020239;28;19944;-86
2023/10/14 13:36:44;;;;;;;;;;;;;;;16.83;nan;100051.63;5012759;28;19921;-86
2023/10/14 13:39:15;;;;;;;;;;;;;;;16.86;nan;100041.38;5018648;28;19917;-84
2023/10/14 13:41:42;;;;;;;;;;;;;;;;;;5018653;28;19928;-84
2023/10/14 13:44:07;;;;;;;;;;;;;;;17.00;nan;100062.78;5017476;28;19927;-86
2023/10/14 13:46:32;;;;;;;;;;;;;;;17.14;nan;100054.53;5019118;28;19921;-85
2023/10/14 13:48:57;;;;;;;;;;;;;;;17.26;nan;100052.06;5019370;28;19925;-87
2023/10/14 13:51:22;;;;;;;;;;;;;;;;;;5019100;28;20299;-84
2023/10/14 13:53:48;;;;;;;;;;;;;;;;;;5021177;28;19947;-86
2023/10/14 13:56:13;;;;;;;;;;;;;;;;;;5020855;28;19975;-85
2023/10/14 13:58:38;;;;;;;;;;;;;;;;;;5020549;28;20146;-85
2023/10/14 14:01:04;;;;;;;;;;;;;;;;;;5020341;28;19922;-85
2023/10/14 14:03:29;;;;;;;;;;;;;;;;;;5016734;28;19963;-86
2023/10/14 14:05:55;;;;;;;;;;;;;;;;;;5016058;28;19926;-84
2023/10/14 14:08:25;;;;;;;;;;;;;;;;;;5013592;28;19921;-86
2023/10/14 14:10:51;;;;;;;;;;;;;;;;;;5014298;28;19990;-84
2023/10/14 14:13:23;;;;;;;;;;;;;;;;;;5013864;28;19956;-87
2023/10/14 14:15:48;;;;;;;;;;;;;;;;;;5006691;28;19968;-86
2023/10/14 14:18:13;;;;;;;;;;;;;;;;;;5011531;28;19921;-85
2023/10/14 14:20:38;;;;;;;;;;;;;;;;;;5009507;28;19925;-86